sensor_id;sensor_type;location;lat;lon;timestamp;pressure;altitude;pressure_sealevel;temperature;humidity
58243;BME280;50118;53.232;8.252;2023-01-31T00:01:25;101834.59;;;1.93;100.00
58243;BME280;50118;53.232;8.252;2023-01-31T00:03:55;101826.94;;;1.86;100.00
58243;BME280;50118;53.232;8.252;2023-01-31T00:08:49;101825.38;;;1.82;100.00
58243;BME280;50118;53.232;8.252;2023-01-31T00:11:16;101834.03;;;1.84;100.00
58243;BME280;50118;53.232;8.252;2023-01-31T00:13:42;101833.97;;;1.86;100.00
58243;BME280;50118;53.232;8.252;2023-01-31T00:16:09;101840.75;;;1.92;100.00
58243;BME280;50118;53.232;8.252;2023-01-31T00:18:35;101842.25;;;1.97;100.00
58243;BME280;50118;53.232;8.252;2023-01-31T00:21:06;101829.47;;;2.10;100.00
58243;BME280;50118;53.232;8.252;2023-01-31T00:23:32;101825.19;;;2.08;100.00
58243;BME280;50118;53.232;8.252;2023-01-31T00:26:15;101835.41;;;2.15;100.00
58243;BME280;50118;53.232;8.252;2023-01-31T00:28:42;101832.66;;;2.18;100.00
58243;BME280;50118;53.232;8.252;2023-01-31T00:31:09;101836.06;;;2.20;100.00
58243;BME280;50118;53.232;8.252;2023-01-31T00:33:36;101834.22;;;2.22;100.00
58243;BME280;50118;53.232;8.252;2023-01-31T00:36:06;101827.66;;;2.33;100.00
58243;BME280;50118;53.232;8.252;2023-01-31T00:38:32;101817.91;;;2.35;100.00
58243;BME280;50118;53.232;8.252;2023-01-31T00:40:58;101821.19;;;2.40;100.00
58243;BME280;50118;53.232;8.252;2023-01-31T00:43:23;101810.56;;;2.43;100.00
58243;BME280;50118;53.232;8.252;2023-01-31T00:45:49;101816.47;;;2.48;100.00
58243;BME280;50118;53.232;8.252;2023-01-31T00:48:14;101814.78;;;2.47;100.00
58243;BME280;50118;53.232;8.252;2023-01-31T00:50:39;101808.81;;;2.43;100.00
58243;BME280;50118;53.232;8.252;2023-01-31T00:53:05;101803.59;;;2.42;100.00
58243;BME280;50118;53.232;8.252;2023-01-31T00:55:31;101807.16;;;2.41;100.00
58243;BME280;50118;53.232;8.252;2023-01-31T00:57:56;101810.69;;;2.40;100.00
58243;BME280;50118;53.232;8.252;2023-01-31T01:00:22;101809.84;;;2.39;100.00
58243;BME280;50118;53.232;8.252;2023-01-31T01:02:47;101814.97;;;2.42;100.00
58243;BME280;50118;53.232;8.252;2023-01-31T01:05:12;101807.03;;;2.44;100.00
58243;BME280;50118;53.232;8.252;2023-01-31T01:07:38;101808.72;;;2.45;100.00
58243;BME280;50118;53.232;8.252;2023-01-31T01:10:05;101808.88;;;2.42;100.00
58243;BME280;50118;53.232;8.252;2023-01-31T01:12:31;101803.16;;;2.32;100.00
58243;BME280;50118;53.232;8.252;2023-01-31T01:14:56;101813.78;;;2.29;100.00
58243;BME280;50118;53.232;8.252;2023-01-31T01:17:21;101809.72;;;2.22;100.00
58243;BME280;50118;53.232;8.252;2023-01-31T01:19:47;101818.72;;;2.16;100.00
58243;BME280;50118;53.232;8.252;2023-01-31T01:22:12;101809.25;;;2.12;100.00
58243;BME280;50118;53.232;8.252;2023-01-31T01:24:42;101805.28;;;2.02;100.00
58243;BME280;50118;53.232;8.252;2023-01-31T01:27:08;101809.09;;;1.95;100.00
58243;BME280;50118;53.232;8.252;2023-01-31T01:29:34;101817.09;;;1.92;100.00
58243;BME280;50118;53.232;8.252;2023-01-31T01:31:59;101804.03;;;1.90;100.00
58243;BME280;50118;53.232;8.252;2023-01-31T01:34:25;101802.13;;;1.94;100.00
58243;BME280;50118;53.232;8.252;2023-01-31T01:36:51;101805.53;;;1.96;100.00
58243;BME280;50118;53.232;8.252;2023-01-31T01:39:16;101804.44;;;2.01;100.00
58243;BME280;50118;53.232;8.252;2023-01-31T01:41:42;101809.31;;;2.11;100.00
58243;BME280;50118;53.232;8.252;2023-01-31T01:49:38;101819.63;;;2.36;100.00
58243;BME280;50118;53.232;8.252;2023-01-31T01:52:06;101819.38;;;2.42;100.00
58243;BME280;50118;53.232;8.252;2023-01-31T01:54:38;101812.94;;;2.49;100.00
58243;BME280;50118;53.232;8.252;2023-01-31T01:57:07;101813.78;;;2.50;100.00
58243;BME280;50118;53.232;8.252;2023-01-31T01:59:40;101818.97;;;2.51;100.00
58243;BME280;50118;53.232;8.252;2023-01-31T02:02:07;101823.16;;;2.55;100.00
58243;BME280;50118;53.232;8.252;2023-01-31T02:04:37;101824.03;;;2.56;100.00
58243;BME280;50118;53.232;8.252;2023-01-31T02:07:03;101829.38;;;2.54;100.00
58243;BME280;50118;53.232;8.252;2023-01-31T02:12:15;101847.31;;;2.65;100.00
58243;BME280;50118;53.232;8.252;2023-01-31T02:14:41;101847.59;;;2.59;100.00
58243;BME280;50118;53.232;8.252;2023-01-31T02:17:15;101841.31;;;2.61;100.00
58243;BME280;50118;53.232;8.252;2023-01-31T02:25:23;101828.25;;;2.60;100.00
58243;BME280;50118;53.232;8.252;2023-01-31T02:33:37;101857.97;;;2.62;100.00
58243;BME280;50118;53.232;8.252;2023-01-31T02:39:05;101833.78;;;2.54;100.00
58243;BME280;50118;53.232;8.252;2023-01-31T02:41:51;101830.22;;;2.55;100.00
58243;BME280;50118;53.232;8.252;2023-01-31T02:44:36;101822.38;;;2.53;100.00
58243;BME280;50118;53.232;8.252;2023-01-31T02:50:26;101818.25;;;2.68;100.00
58243;BME280;50118;53.232;8.252;2023-01-31T02:56:02;101806.59;;;2.53;100.00
58243;BME280;50118;53.232;8.252;2023-01-31T02:59:17;101801.81;;;2.42;100.00
58243;BME280;50118;53.232;8.252;2023-01-31T03:01:48;101806.31;;;2.40;100.00
58243;BME280;50118;53.232;8.252;2023-01-31T03:04:15;101803.44;;;2.45;100.00
58243;BME280;50118;53.232;8.252;2023-01-31T03:06:56;101796.75;;;2.38;100.00
58243;BME280;50118;53.232;8.252;2023-01-31T03:09:36;101793.75;;;2.27;100.00
58243;BME280;50118;53.232;8.252;2023-01-31T03:14:55;101787.38;;;2.12;100.00
58243;BME280;50118;53.232;8.252;2023-01-31T03:17:31;101785.47;;;2.15;100.00
58243;BME280;50118;53.232;8.252;2023-01-31T03:20:10;101786.53;;;2.11;100.00
58243;BME280;50118;53.232;8.252;2023-01-31T03:22:43;101788.75;;;2.00;100.00
58243;BME280;50118;53.232;8.252;2023-01-31T03:25:12;101791.81;;;1.89;100.00
58243;BME280;50118;53.232;8.252;2023-01-31T03:27:41;101786.75;;;1.84;100.00
58243;BME280;50118;53.232;8.252;2023-01-31T03:30:12;101788.44;;;1.85;100.00
58243;BME280;50118;53.232;8.252;2023-01-31T03:32:45;101789.25;;;1.88;100.00
58243;BME280;50118;53.232;8.252;2023-01-31T03:35:13;101784.25;;;1.81;100.00
58243;BME280;50118;53.232;8.252;2023-01-31T03:37:40;101775.25;;;1.87;100.00
58243;BME280;50118;53.232;8.252;2023-01-31T03:40:26;101770.72;;;1.91;100.00
58243;BME280;50118;53.232;8.252;2023-01-31T03:45:45;101778.47;;;1.94;100.00
58243;BME280;50118;53.232;8.252;2023-01-31T03:48:12;101776.44;;;2.00;100.00
58243;BME280;50118;53.232;8.252;2023-01-31T03:51:03;101781.31;;;2.10;100.00
58243;BME280;50118;53.232;8.252;2023-01-31T03:53:38;101773.75;;;2.02;100.00
58243;BME280;50118;53.232;8.252;2023-01-31T03:56:23;101774.47;;;2.05;100.00
58243;BME280;50118;53.232;8.252;2023-01-31T03:59:02;101782.41;;;2.04;100.00
58243;BME280;50118;53.232;8.252;2023-01-31T04:01:31;101777.16;;;2.04;100.00
58243;BME280;50118;53.232;8.252;2023-01-31T04:04:15;101784.03;;;2.08;100.00
58243;BME280;50118;53.232;8.252;2023-01-31T04:06:43;101777.38;;;2.20;100.00
58243;BME280;50118;53.232;8.252;2023-01-31T04:09:09;101778.22;;;2.20;100.00
58243;BME280;50118;53.232;8.252;2023-01-31T04:11:40;101772.78;;;2.25;100.00
58243;BME280;50118;53.232;8.252;2023-01-31T04:14:06;101768.31;;;2.27;100.00
58243;BME280;50118;53.232;8.252;2023-01-31T04:16:32;101771.00;;;2.26;100.00
58243;BME280;50118;53.232;8.252;2023-01-31T04:18:57;101768.78;;;2.37;100.00
58243;BME280;50118;53.232;8.252;2023-01-31T04:21:23;101759.81;;;2.41;100.00
58243;BME280;50118;53.232;8.252;2023-01-31T04:23:48;101763.63;;;2.34;100.00
58243;BME280;50118;53.232;8.252;2023-01-31T04:26:14;101753.00;;;2.37;100.00
58243;BME280;50118;53.232;8.252;2023-01-31T04:28:39;101751.28;;;2.36;100.00
58243;BME280;50118;53.232;8.252;2023-01-31T04:31:05;101745.69;;;2.43;100.00
58243;BME280;50118;53.232;8.252;2023-01-31T04:33:31;101742.31;;;2.40;100.00
58243;BME280;50118;53.232;8.252;2023-01-31T04:35:56;101745.94;;;2.37;100.00
58243;BME280;50118;53.232;8.252;2023-01-31T04:38:22;101750.69;;;2.29;100.00
58243;BME280;50118;53.232;8.252;2023-01-31T04:40:47;101743.56;;;2.31;100.00
58243;BME280;50118;53.232;8.252;2023-01-31T04:43:12;101749.41;;;2.38;100.00
58243;BME280;50118;53.232;8.252;2023-01-31T04:45:38;101744.94;;;2.40;100.00
58243;BME280;50118;53.232;8.252;2023-01-31T04:48:04;101735.38;;;2.39;100.00
58243;BME280;50118;53.232;8.252;2023-01-31T04:50:29;101737.06;;;2.40;100.00
58243;BME280;50118;53.232;8.252;2023-01-31T04:52:54;101738.00;;;2.39;100.00
58243;BME280;50118;53.232;8.252;2023-01-31T04:55:20;101723.84;;;2.41;100.00
58243;BME280;50118;53.232;8.252;2023-01-31T04:57:46;101737.06;;;2.40;100.00
58243;BME280;50118;53.232;8.252;2023-01-31T05:00:12;101734.28;;;2.43;100.00
58243;BME280;50118;53.232;8.252;2023-01-31T05:02:37;101721.28;;;2.40;100.00
58243;BME280;50118;53.232;8.252;2023-01-31T05:05:04;101728.13;;;2.44;100.00
58243;BME280;50118;53.232;8.252;2023-01-31T05:07:29;101723.00;;;2.41;100.00
58243;BME280;50118;53.232;8.252;2023-01-31T05:09:55;101717.47;;;2.47;100.00
58243;BME280;50118;53.232;8.252;2023-01-31T05:12:20;101715.75;;;2.46;100.00
58243;BME280;50118;53.232;8.252;2023-01-31T05:14:46;101703.38;;;2.48;100.00
58243;BME280;50118;53.232;8.252;2023-01-31T05:17:11;101702.53;;;2.48;100.00
58243;BME280;50118;53.232;8.252;2023-01-31T05:19:36;101714.19;;;2.42;100.00
58243;BME280;50118;53.232;8.252;2023-01-31T05:22:02;101709.97;;;2.38;100.00
58243;BME280;50118;53.232;8.252;2023-01-31T05:24:29;101696.56;;;2.44;100.00
58243;BME280;50118;53.232;8.252;2023-01-31T05:26:56;101697.22;;;2.49;100.00
58243;BME280;50118;53.232;8.252;2023-01-31T05:29:26;101689.25;;;2.51;100.00
58243;BME280;50118;53.232;8.252;2023-01-31T05:31:53;101701.13;;;2.59;100.00
58243;BME280;50118;53.232;8.252;2023-01-31T05:34:19;101702.69;;;2.64;100.00
58243;BME280;50118;53.232;8.252;2023-01-31T05:36:45;101700.28;;;2.59;100.00
58243;BME280;50118;53.232;8.252;2023-01-31T05:39:11;101707.09;;;2.63;100.00
58243;BME280;50118;53.232;8.252;2023-01-31T05:41:36;101700.69;;;2.69;100.00
58243;BME280;50118;53.232;8.252;2023-01-31T05:44:01;101690.88;;;2.72;100.00
58243;BME280;50118;53.232;8.252;2023-01-31T05:46:27;101689.75;;;2.78;100.00
58243;BME280;50118;53.232;8.252;2023-01-31T05:48:52;101670.25;;;2.82;100.00
58243;BME280;50118;53.232;8.252;2023-01-31T05:51:18;101666.72;;;2.83;100.00
58243;BME280;50118;53.232;8.252;2023-01-31T05:53:43;101664.84;;;2.85;100.00
58243;BME280;50118;53.232;8.252;2023-01-31T05:56:08;101658.31;;;2.94;100.00
58243;BME280;50118;53.232;8.252;2023-01-31T05:58:34;101658.22;;;2.95;100.00
58243;BME280;50118;53.232;8.252;2023-01-31T06:01:00;101663.50;;;2.95;100.00
58243;BME280;50118;53.232;8.252;2023-01-31T06:03:25;101665.97;;;2.98;100.00
58243;BME280;50118;53.232;8.252;2023-01-31T06:05:50;101656.44;;;2.96;100.00
58243;BME280;50118;53.232;8.252;2023-01-31T06:08:16;101666.97;;;2.96;100.00
58243;BME280;50118;53.232;8.252;2023-01-31T06:10:42;101648.03;;;3.07;100.00
58243;BME280;50118;53.232;8.252;2023-01-31T06:13:07;101648.19;;;3.04;100.00
58243;BME280;50118;53.232;8.252;2023-01-31T06:15:32;101644.41;;;3.09;100.00
58243;BME280;50118;53.232;8.252;2023-01-31T06:17:58;101634.50;;;3.14;100.00
58243;BME280;50118;53.232;8.252;2023-01-31T06:20:24;101628.88;;;3.22;100.00
58243;BME280;50118;53.232;8.252;2023-01-31T06:22:50;101623.97;;;3.14;100.00
58243;BME280;50118;53.232;8.252;2023-01-31T06:25:15;101620.97;;;3.22;100.00
58243;BME280;50118;53.232;8.252;2023-01-31T06:27:41;101613.00;;;3.24;100.00
58243;BME280;50118;53.232;8.252;2023-01-31T06:30:08;101605.94;;;3.24;100.00
58243;BME280;50118;53.232;8.252;2023-01-31T06:32:33;101612.59;;;3.31;100.00
58243;BME280;50118;53.232;8.252;2023-01-31T06:34:59;101611.34;;;3.39;100.00
58243;BME280;50118;53.232;8.252;2023-01-31T06:37:24;101606.00;;;3.40;100.00
58243;BME280;50118;53.232;8.252;2023-01-31T06:39:49;101609.88;;;3.33;100.00
58243;BME280;50118;53.232;8.252;2023-01-31T06:42:15;101594.84;;;3.35;100.00
58243;BME280;50118;53.232;8.252;2023-01-31T06:44:40;101585.19;;;3.35;100.00
58243;BME280;50118;53.232;8.252;2023-01-31T06:47:06;101586.03;;;3.36;100.00
58243;BME280;50118;53.232;8.252;2023-01-31T06:49:31;101582.38;;;3.39;100.00
58243;BME280;50118;53.232;8.252;2023-01-31T06:51:56;101563.78;;;3.42;100.00
58243;BME280;50118;53.232;8.252;2023-01-31T06:54:22;101565.34;;;3.46;100.00
58243;BME280;50118;53.232;8.252;2023-01-31T06:56:47;101561.91;;;3.44;100.00
58243;BME280;50118;53.232;8.252;2023-01-31T06:59:13;101568.22;;;3.41;100.00
58243;BME280;50118;53.232;8.252;2023-01-31T07:01:38;101571.38;;;3.48;100.00
58243;BME280;50118;53.232;8.252;2023-01-31T07:04:03;101564.75;;;3.41;100.00
58243;BME280;50118;53.232;8.252;2023-01-31T07:06:29;101568.59;;;3.51;100.00
58243;BME280;50118;53.232;8.252;2023-01-31T07:08:54;101574.03;;;3.48;100.00
58243;BME280;50118;53.232;8.252;2023-01-31T07:11:20;101568.00;;;3.46;100.00
58243;BME280;50118;53.232;8.252;2023-01-31T07:13:45;101564.19;;;3.51;100.00
58243;BME280;50118;53.232;8.252;2023-01-31T07:16:13;101559.75;;;3.52;100.00
58243;BME280;50118;53.232;8.252;2023-01-31T07:18:38;101559.97;;;3.65;100.00
58243;BME280;50118;53.232;8.252;2023-01-31T07:21:03;101547.19;;;3.57;100.00
58243;BME280;50118;53.232;8.252;2023-01-31T07:23:30;101535.72;;;3.58;100.00
58243;BME280;50118;53.232;8.252;2023-01-31T07:25:56;101549.13;;;3.53;100.00
58243;BME280;50118;53.232;8.252;2023-01-31T07:28:21;101522.88;;;3.52;100.00
58243;BME280;50118;53.232;8.252;2023-01-31T07:30:46;101524.75;;;3.50;100.00
58243;BME280;50118;53.232;8.252;2023-01-31T07:33:12;101533.41;;;3.52;100.00
58243;BME280;50118;53.232;8.252;2023-01-31T07:35:40;101523.03;;;3.49;100.00
58243;BME280;50118;53.232;8.252;2023-01-31T07:38:06;101512.50;;;3.49;100.00
58243;BME280;50118;53.232;8.252;2023-01-31T07:40:31;101514.03;;;3.53;100.00
58243;BME280;50118;53.232;8.252;2023-01-31T07:42:57;101506.91;;;3.55;100.00
58243;BME280;50118;53.232;8.252;2023-01-31T07:45:23;101504.13;;;3.58;100.00
58243;BME280;50118;53.232;8.252;2023-01-31T07:47:49;101509.16;;;3.63;100.00
58243;BME280;50118;53.232;8.252;2023-01-31T07:50:15;101502.31;;;3.59;100.00
58243;BME280;50118;53.232;8.252;2023-01-31T07:52:40;101485.84;;;3.71;100.00
58243;BME280;50118;53.232;8.252;2023-01-31T07:55:06;101477.41;;;3.64;100.00
58243;BME280;50118;53.232;8.252;2023-01-31T07:57:32;101476.00;;;3.74;100.00
58243;BME280;50118;53.232;8.252;2023-01-31T07:59:57;101474.31;;;3.73;100.00
58243;BME280;50118;53.232;8.252;2023-01-31T08:02:22;101465.97;;;3.65;100.00
58243;BME280;50118;53.232;8.252;2023-01-31T08:05:08;101465.66;;;3.71;100.00
58243;BME280;50118;53.232;8.252;2023-01-31T08:07:35;101462.66;;;3.78;100.00
58243;BME280;50118;53.232;8.252;2023-01-31T08:10:00;101431.72;;;3.65;100.00
58243;BME280;50118;53.232;8.252;2023-01-31T08:12:26;101437.41;;;3.58;100.00
58243;BME280;50118;53.232;8.252;2023-01-31T08:14:51;101434.66;;;3.59;100.00
58243;BME280;50118;53.232;8.252;2023-01-31T08:17:16;101433.31;;;3.52;100.00
58243;BME280;50118;53.232;8.252;2023-01-31T08:19:42;101429.25;;;3.62;100.00
58243;BME280;50118;53.232;8.252;2023-01-31T08:22:08;101423.03;;;3.63;100.00
58243;BME280;50118;53.232;8.252;2023-01-31T08:24:33;101427.19;;;3.67;100.00
58243;BME280;50118;53.232;8.252;2023-01-31T08:26:59;101417.03;;;3.61;100.00
58243;BME280;50118;53.232;8.252;2023-01-31T08:29:25;101417.94;;;3.60;100.00
58243;BME280;50118;53.232;8.252;2023-01-31T08:31:51;101421.50;;;3.59;100.00
58243;BME280;50118;53.232;8.252;2023-01-31T08:34:17;101415.38;;;3.59;100.00
58243;BME280;50118;53.232;8.252;2023-01-31T08:36:44;101412.25;;;3.68;100.00
58243;BME280;50118;53.232;8.252;2023-01-31T08:39:10;101402.56;;;3.68;100.00
58243;BME280;50118;53.232;8.252;2023-01-31T08:41:36;101414.03;;;3.67;100.00
58243;BME280;50118;53.232;8.252;2023-01-31T08:44:04;101411.22;;;3.70;100.00
58243;BME280;50118;53.232;8.252;2023-01-31T08:46:33;101406.56;;;3.76;100.00
58243;BME280;50118;53.232;8.252;2023-01-31T08:49:00;101397.66;;;3.78;100.00
58243;BME280;50118;53.232;8.252;2023-01-31T08:51:26;101389.16;;;3.73;100.00
58243;BME280;50118;53.232;8.252;2023-01-31T08:53:51;101400.53;;;3.73;100.00
58243;BME280;50118;53.232;8.252;2023-01-31T08:56:17;101401.13;;;3.79;100.00
58243;BME280;50118;53.232;8.252;2023-01-31T08:58:45;101396.84;;;3.76;100.00
58243;BME280;50118;53.232;8.252;2023-01-31T09:01:15;101388.13;;;3.76;100.00
58243;BME280;50118;53.232;8.252;2023-01-31T09:03:41;101392.25;;;3.80;100.00
58243;BME280;50118;53.232;8.252;2023-01-31T09:06:10;101389.72;;;3.94;100.00
58243;BME280;50118;53.232;8.252;2023-01-31T09:08:36;101390.31;;;3.99;100.00
58243;BME280;50118;53.232;8.252;2023-01-31T09:11:02;101385.78;;;4.01;100.00
58243;BME280;50118;53.232;8.252;2023-01-31T09:13:29;101386.56;;;4.03;100.00
58243;BME280;50118;53.232;8.252;2023-01-31T09:16:09;101384.69;;;4.05;100.00
58243;BME280;50118;53.232;8.252;2023-01-31T09:18:36;101383.41;;;4.13;100.00
58243;BME280;50118;53.232;8.252;2023-01-31T09:21:07;101385.66;;;4.19;100.00
58243;BME280;50118;53.232;8.252;2023-01-31T09:23:34;101378.72;;;4.18;100.00
58243;BME280;50118;53.232;8.252;2023-01-31T09:25:59;101369.50;;;4.25;100.00
58243;BME280;50118;53.232;8.252;2023-01-31T09:28:25;101370.00;;;4.32;100.00
58243;BME280;50118;53.232;8.252;2023-01-31T09:30:50;101369.16;;;4.31;100.00
58243;BME280;50118;53.232;8.252;2023-01-31T09:33:20;101369.16;;;4.31;100.00
58243;BME280;50118;53.232;8.252;2023-01-31T09:36:00;101371.72;;;4.33;100.00
58243;BME280;50118;53.232;8.252;2023-01-31T09:38:26;101374.22;;;4.34;100.00
58243;BME280;50118;53.232;8.252;2023-01-31T09:40:53;101372.72;;;4.30;100.00
58243;BME280;50118;53.232;8.252;2023-01-31T09:43:22;101357.06;;;4.27;100.00
58243;BME280;50118;53.232;8.252;2023-01-31T09:45:49;101351.63;;;4.30;100.00
58243;BME280;50118;53.232;8.252;2023-01-31T09:48:20;101347.88;;;4.34;100.00
58243;BME280;50118;53.232;8.252;2023-01-31T09:50:49;101344.28;;;4.35;100.00
58243;BME280;50118;53.232;8.252;2023-01-31T09:53:17;101344.97;;;4.39;100.00
58243;BME280;50118;53.232;8.252;2023-01-31T10:07:16;101306.84;;;4.44;100.00
58243;BME280;50118;53.232;8.252;2023-01-31T10:09:48;101311.16;;;4.45;100.00
58243;BME280;50118;53.232;8.252;2023-01-31T10:12:50;101300.16;;;4.53;100.00
58243;BME280;50118;53.232;8.252;2023-01-31T10:15:25;101306.94;;;4.57;100.00
58243;BME280;50118;53.232;8.252;2023-01-31T10:18:00;101308.34;;;4.63;100.00
58243;BME280;50118;53.232;8.252;2023-01-31T10:20:39;101311.19;;;4.60;100.00
58243;BME280;50118;53.232;8.252;2023-01-31T10:23:33;101300.81;;;4.71;100.00
58243;BME280;50118;53.232;8.252;2023-01-31T10:26:02;101303.63;;;4.68;100.00
58243;BME280;50118;53.232;8.252;2023-01-31T10:28:35;101305.53;;;4.66;100.00
58243;BME280;50118;53.232;8.252;2023-01-31T10:31:26;101307.06;;;4.70;100.00
58243;BME280;50118;53.232;8.252;2023-01-31T10:41:40;101297.06;;;4.90;100.00
58243;BME280;50118;53.232;8.252;2023-01-31T10:44:19;101288.75;;;4.96;100.00
58243;BME280;50118;53.232;8.252;2023-01-31T10:46:47;101288.56;;;4.99;100.00
58243;BME280;50118;53.232;8.252;2023-01-31T10:49:12;101291.00;;;5.02;100.00
58243;BME280;50118;53.232;8.252;2023-01-31T10:56:43;101296.66;;;5.10;100.00
58243;BME280;50118;53.232;8.252;2023-01-31T10:59:30;101289.47;;;5.12;100.00
58243;BME280;50118;53.232;8.252;2023-01-31T11:01:59;101288.34;;;5.16;100.00
58243;BME280;50118;53.232;8.252;2023-01-31T11:04:33;101280.81;;;5.10;100.00
58243;BME280;50118;53.232;8.252;2023-01-31T11:07:00;101294.19;;;5.07;100.00
58243;BME280;50118;53.232;8.252;2023-01-31T11:09:29;101285.53;;;5.05;100.00
58243;BME280;50118;53.232;8.252;2023-01-31T11:11:59;101286.13;;;4.96;100.00
58243;BME280;50118;53.232;8.252;2023-01-31T11:14:25;101279.59;;;5.01;100.00
58243;BME280;50118;53.232;8.252;2023-01-31T11:17:12;101279.13;;;4.95;100.00
58243;BME280;50118;53.232;8.252;2023-01-31T11:19:53;101270.09;;;4.99;100.00
58243;BME280;50118;53.232;8.252;2023-01-31T11:24:51;101276.88;;;5.03;100.00
58243;BME280;50118;53.232;8.252;2023-01-31T11:27:37;101260.66;;;4.95;100.00
58243;BME280;50118;53.232;8.252;2023-01-31T11:30:04;101255.94;;;5.00;100.00
58243;BME280;50118;53.232;8.252;2023-01-31T11:32:34;101261.03;;;5.03;100.00
58243;BME280;50118;53.232;8.252;2023-01-31T11:35:22;101251.81;;;4.96;100.00
58243;BME280;50118;53.232;8.252;2023-01-31T11:40:33;101268.94;;;4.89;100.00
58243;BME280;50118;53.232;8.252;2023-01-31T11:48:04;101253.97;;;4.89;100.00
58243;BME280;50118;53.232;8.252;2023-01-31T11:50:37;101265.56;;;4.86;100.00
58243;BME280;50118;53.232;8.252;2023-01-31T11:55:41;101251.44;;;4.88;100.00
58243;BME280;50118;53.232;8.252;2023-01-31T11:58:33;101247.63;;;4.92;100.00
58243;BME280;50118;53.232;8.252;2023-01-31T12:01:01;101250.19;;;4.93;100.00
58243;BME280;50118;53.232;8.252;2023-01-31T12:03:30;101245.00;;;5.06;100.00
58243;BME280;50118;53.232;8.252;2023-01-31T12:06:01;101249.16;;;4.96;100.00
58243;BME280;50118;53.232;8.252;2023-01-31T12:08:39;101241.59;;;5.04;100.00
58243;BME280;50118;53.232;8.252;2023-01-31T12:13:52;101245.56;;;5.11;100.00
58243;BME280;50118;53.232;8.252;2023-01-31T12:16:20;101243.75;;;5.12;100.00
58243;BME280;50118;53.232;8.252;2023-01-31T12:21:15;101230.81;;;5.07;100.00
58243;BME280;50118;53.232;8.252;2023-01-31T12:23:59;101237.63;;;5.11;100.00
58243;BME280;50118;53.232;8.252;2023-01-31T12:32:11;101216.72;;;5.21;100.00
58243;BME280;50118;53.232;8.252;2023-01-31T12:49:22;101199.06;;;5.36;100.00
58243;BME280;50118;53.232;8.252;2023-01-31T12:54:48;101203.94;;;5.42;100.00
58243;BME280;50118;53.232;8.252;2023-01-31T12:59:58;101192.13;;;5.48;100.00
58243;BME280;50118;53.232;8.252;2023-01-31T13:02:49;101183.66;;;5.42;100.00
58243;BME280;50118;53.232;8.252;2023-01-31T13:05:30;101187.66;;;5.48;100.00
58243;BME280;50118;53.232;8.252;2023-01-31T13:08:11;101188.34;;;5.52;100.00
58243;BME280;50118;53.232;8.252;2023-01-31T13:11:00;101168.44;;;5.46;100.00
58243;BME280;50118;53.232;8.252;2023-01-31T13:19:02;101179.44;;;5.40;100.00
58243;BME280;50118;53.232;8.252;2023-01-31T13:21:32;101169.94;;;5.50;100.00
58243;BME280;50118;53.232;8.252;2023-01-31T13:24:02;101171.81;;;5.48;100.00
58243;BME280;50118;53.232;8.252;2023-01-31T13:26:34;101168.03;;;5.52;100.00
58243;BME280;50118;53.232;8.252;2023-01-31T13:29:13;101153.03;;;5.53;100.00
58243;BME280;50118;53.232;8.252;2023-01-31T13:32:14;101154.53;;;5.57;100.00
58243;BME280;50118;53.232;8.252;2023-01-31T13:34:48;101151.13;;;5.55;100.00
58243;BME280;50118;53.232;8.252;2023-01-31T13:37:16;101155.56;;;5.54;100.00
58243;BME280;50118;53.232;8.252;2023-01-31T13:39:54;101158.75;;;5.59;100.00
58243;BME280;50118;53.232;8.252;2023-01-31T13:42:22;101152.00;;;5.55;100.00
58243;BME280;50118;53.232;8.252;2023-01-31T13:44:47;101164.13;;;5.58;100.00
58243;BME280;50118;53.232;8.252;2023-01-31T13:50:26;101174.84;;;5.69;100.00
58243;BME280;50118;53.232;8.252;2023-01-31T13:52:54;101167.00;;;5.80;100.00
58243;BME280;50118;53.232;8.252;2023-01-31T13:58:03;101171.91;;;5.74;100.00
58243;BME280;50118;53.232;8.252;2023-01-31T14:03:10;101158.56;;;5.75;100.00
58243;BME280;50118;53.232;8.252;2023-01-31T14:10:56;101172.00;;;5.85;100.00
58243;BME280;50118;53.232;8.252;2023-01-31T14:15:57;101173.28;;;5.92;100.00
58243;BME280;50118;53.232;8.252;2023-01-31T14:18:43;101166.22;;;5.93;100.00
58243;BME280;50118;53.232;8.252;2023-01-31T14:23:54;101175.34;;;6.02;100.00
58243;BME280;50118;53.232;8.252;2023-01-31T14:29:23;101197.13;;;6.05;100.00
58243;BME280;50118;53.232;8.252;2023-01-31T14:31:51;101185.81;;;6.16;100.00
58243;BME280;50118;53.232;8.252;2023-01-31T14:34:21;101168.16;;;6.16;100.00
58243;BME280;50118;53.232;8.252;2023-01-31T14:40:51;101177.13;;;6.14;100.00
58243;BME280;50118;53.232;8.252;2023-01-31T14:56:50;101176.38;;;6.38;100.00
58243;BME280;50118;53.232;8.252;2023-01-31T14:59:25;101176.59;;;6.34;100.00
58243;BME280;50118;53.232;8.252;2023-01-31T15:01:52;101183.59;;;6.35;100.00
58243;BME280;50118;53.232;8.252;2023-01-31T15:04:20;101165.59;;;6.41;100.00
58243;BME280;50118;53.232;8.252;2023-01-31T15:06:49;101186.25;;;6.35;100.00
58243;BME280;50118;53.232;8.252;2023-01-31T15:09:26;101192.25;;;6.38;100.00
58243;BME280;50118;53.232;8.252;2023-01-31T15:11:59;101213.63;;;6.34;100.00
58243;BME280;50118;53.232;8.252;2023-01-31T15:14:37;101199.47;;;6.35;100.00
58243;BME280;50118;53.232;8.252;2023-01-31T15:17:10;101191.84;;;6.44;100.00
58243;BME280;50118;53.232;8.252;2023-01-31T15:19:46;101188.44;;;6.42;100.00
58243;BME280;50118;53.232;8.252;2023-01-31T15:22:16;101236.72;;;6.32;100.00
58243;BME280;50118;53.232;8.252;2023-01-31T15:24:53;101214.06;;;6.41;100.00
58243;BME280;50118;53.232;8.252;2023-01-31T15:27:25;101224.13;;;6.36;100.00
58243;BME280;50118;53.232;8.252;2023-01-31T15:30:20;101221.38;;;6.38;100.00
58243;BME280;50118;53.232;8.252;2023-01-31T15:35:28;101196.50;;;6.27;100.00